Time;durP1;ratioP1;P1;durP2;ratioP2;P2;SDS_P1;SDS_P2;PMS_P1;PMS_P2;Temp;Humidity;BMP_temperature;BMP_pressure;BME280_temperature;BME280_humidity;BME280_pressure;Samples;Min_cycle;Max_cycle;Signal;HPM_P1;HPM_P2
2021/11/06 00:00:27;;;;;;;13.88;9.10;;;;;;;11.36;98.71;145046.91;1835050;77;22160;-62
2021/11/06 00:03:21;;;;;;;15.63;9.20;;;;;;;11.19;97.11;145005.47;1835088;77;22164;-63
2021/11/06 00:05:56;;;;;;;15.13;8.43;;;;;;;11.12;96.16;144987.91;1853600;77;22152;-63
2021/11/06 00:08:31;;;;;;;14.95;9.35;;;;;;;11.02;94.17;144964.09;1835001;77;22161;-61
2021/11/06 00:11:06;;;;;;;11.93;8.18;;;;;;;10.98;94.45;144954.05;1819351;77;27983;-60
2021/11/06 00:14:00;;;;;;;12.45;7.15;;;;;;;10.98;93.92;144955.28;1853503;77;22167;-62
2021/11/06 00:16:36;;;;;;;11.45;7.67;;;;;;;10.92;92.98;144940.25;1853562;77;22182;-61
2021/11/06 00:19:13;;;;;;;12.37;6.87;;;;;;;10.86;93.23;144925.17;1834757;77;22188;-63
2021/11/06 00:22:07;;;;;;;10.15;6.92;;;;;;;10.72;93.05;144890.08;1853528;77;22151;-61
2021/11/06 00:24:43;;;;;;;11.00;6.55;;;;;;;10.57;93.44;144854.94;1819554;77;28023;-63
2021/11/06 00:27:18;;;;;;;9.25;5.90;;;;;;;10.54;93.79;144847.42;1819447;77;28088;-58
2021/11/06 00:29:53;;;;;;;10.70;6.00;;;;;;;10.54;93.26;144847.42;1853578;77;22186;-59
2021/11/06 00:32:28;;;;;;;11.65;6.55;;;;;;;10.46;93.66;144826.06;1835031;77;22160;-63
2021/11/06 00:35:13;;;;;;;12.82;6.30;;;;;;;10.35;93.74;144801.00;1853826;77;22213;-64
2021/11/06 00:38:07;;;;;;;9.85;5.60;;;;;;;10.31;94.50;144789.75;1853624;77;22140;-62
2021/11/06 00:41:07;;;;;;;12.13;5.92;;;;;;;10.27;94.50;144779.64;1852333;77;22598;-62
2021/11/06 00:43:42;;;;;;;11.12;5.50;;;;;;;10.17;94.05;144757.06;1853572;77;22593;-61
2021/11/06 00:46:24;;;;;;;12.10;5.40;;;;;;;10.12;94.46;144743.28;1853722;77;22207;-65
2021/11/06 00:49:05;;;;;;;9.15;5.05;;;;;;;10.06;94.53;144729.50;1834189;77;22210;-65
2021/11/06 00:51:46;;;;;;;8.28;5.08;;;;;;;10.03;93.91;144720.73;1834193;77;22168;-62
2021/11/06 00:54:41;;;;;;;11.85;6.15;;;;;;;9.96;93.31;144704.42;1835094;77;22559;-62
2021/11/06 00:57:35;;;;;;;9.80;5.50;;;;;;;9.91;93.23;144693.13;1834980;77;22136;-60
2021/11/06 01:00:13;;;;;;;10.38;5.53;;;;;;;9.88;93.12;144684.38;1834731;77;22172;-60
2021/11/06 01:02:49;;;;;;;7.37;4.95;;;;;;;9.87;92.83;144681.84;1834950;77;22132;-61
2021/11/06 01:05:50;;;;;;;11.48;5.65;;;;;;;9.87;92.86;144681.84;1834085;77;22590;-63
2021/11/06 01:08:44;;;;;;;9.00;6.10;;;;;;;9.88;92.95;144684.38;1834889;77;22152;-61
2021/11/06 01:11:21;;;;;;;9.08;5.58;;;;;;;9.87;92.87;144681.84;1834844;77;22151;-63
2021/11/06 01:14:21;;;;;;;8.18;5.45;;;;;;;9.83;93.14;144671.84;1834078;77;22209;-62
2021/11/06 01:16:56;;;;;;;9.48;5.85;;;;;;;9.81;93.18;144666.81;1849521;77;22124;-62
2021/11/06 01:19:56;;;;;;;11.50;6.55;;;;;;;9.85;93.26;144676.86;1823098;77;22622;-60
2021/11/06 01:22:31;;;;;;;10.35;6.05;;;;;;;9.87;93.26;144683.13;1834963;77;22630;-60
2021/11/06 01:25:14;;;;;;;11.53;6.78;;;;;;;9.84;93.80;144675.58;1834108;77;22194;-64
2021/11/06 01:28:10;;;;;;;12.75;6.92;;;;;;;9.82;94.14;144670.59;1853441;77;22588;-63
2021/11/06 01:31:04;;;;;;;13.60;7.35;;;;;;;9.80;94.73;144665.58;1835016;77;22163;-63
2021/11/06 01:33:57;;;;;;;12.53;7.47;;;;;;;9.81;95.43;144668.06;1853456;77;22188;-61
2021/11/06 01:36:51;;;;;;;12.13;8.05;;;;;;;9.81;95.87;144666.81;1834825;77;22164;-59
2021/11/06 01:39:26;;;;;;;11.08;7.10;;;;;;;9.74;95.87;144650.50;1834924;77;22550;-62
2021/11/06 01:42:21;;;;;;;12.35;6.37;;;;;;;9.67;95.95;144633.00;1827945;77;22202;-60
2021/11/06 01:44:55;;;;;;;9.90;7.08;;;;;;;9.61;95.57;144619.17;1834899;77;22164;-63
2021/11/06 01:47:50;;;;;;;10.80;7.03;;;;;;;9.57;93.99;144609.17;1823486;77;22122;-63
2021/11/06 01:50:43;;;;;;;10.32;6.72;;;;;;;9.48;92.51;144586.59;1853453;77;22155;-61
2021/11/06 01:53:20;;;;;;;9.60;6.15;;;;;;;9.41;91.93;144569.05;1834721;77;22250;-62
2021/11/06 01:56:00;;;;;;;9.98;6.22;;;;;;;9.38;91.11;144561.53;1853421;77;22200;-64
2021/11/06 01:58:43;;;;;;;10.93;6.20;;;;;;;9.32;90.63;144547.77;1834086;77;22138;-62
2021/11/06 02:01:44;;;;;;;11.78;6.42;;;;;;;9.30;90.11;144542.75;1834047;77;22610;-59
2021/11/06 02:04:40;;;;;;;9.13;5.55;;;;;;;9.29;90.13;144541.50;1853486;77;22201;-62
2021/11/06 02:07:34;;;;;;;11.35;6.03;;;;;;;9.27;90.08;144535.23;1841405;77;22128;-62
2021/11/06 02:10:29;;;;;;;10.90;5.75;;;;;;;9.21;90.03;144521.47;1803887;77;22185;-60
2021/11/06 02:13:11;;;;;;;8.95;5.62;;;;;;;9.19;90.44;144516.45;1834057;77;22593;-61
2021/11/06 02:15:46;;;;;;;10.43;6.15;;;;;;;9.19;90.68;144516.45;1834801;77;22144;-59
2021/11/06 02:18:22;;;;;;;11.25;6.00;;;;;;;9.16;91.14;144508.94;1830979;77;22144;-60
2021/11/06 02:21:04;;;;;;;12.00;6.35;;;;;;;9.11;91.43;144496.41;1834867;77;22558;-61
2021/11/06 02:23:47;;;;;;;13.70;5.75;;;;;;;9.08;92.12;144488.86;1853497;77;22152;-64
2021/11/06 02:26:22;;;;;;;9.85;5.97;;;;;;;9.05;92.47;144482.59;1834898;77;22243;-61
2021/11/06 02:29:01;;;;;;;8.63;5.85;;;;;;;9.02;93.15;144473.84;1823043;77;22187;-63
2021/11/06 02:31:36;;;;;;;10.23;5.67;;;;;;;8.98;93.52;144463.81;1834927;77;22132;-61
2021/11/06 02:34:11;;;;;;;11.90;5.90;;;;;;;8.90;94.05;144445.02;1835020;77;22120;-59
2021/11/06 02:36:46;;;;;;;8.50;4.78;;;;;;;8.79;94.19;144418.72;1834800;77;22130;-61
2021/11/06 02:39:24;;;;;;;9.58;5.20;;;;;;;8.71;94.51;144397.45;1829688;77;22171;-62
2021/11/06 02:42:24;;;;;;;10.20;5.22;;;;;;;8.64;94.46;144381.16;1848067;77;22188;-59
2021/11/06 02:44:59;;;;;;;8.45;5.45;;;;;;;8.57;94.52;144363.63;1833133;77;22144;-59
2021/11/06 02:47:36;;;;;;;9.00;5.47;;;;;;;8.51;94.14;144349.84;1827259;77;22290;-60
2021/11/06 02:50:11;;;;;;;8.63;5.20;;;;;;;8.51;94.38;144349.84;1835872;77;28577;-61
2021/11/06 02:52:52;;;;;;;10.25;5.17;;;;;;;8.53;94.22;144354.88;1831614;77;22188;-59
2021/11/06 02:55:28;;;;;;;9.58;5.08;;;;;;;8.53;94.22;144353.63;1831407;77;22163;-61
2021/11/06 02:58:03;;;;;;;8.60;5.42;;;;;;;8.56;94.43;144362.38;1814465;77;38756;-62
2021/11/06 03:00:39;;;;;;;7.80;5.30;;;;;;;8.65;94.56;144384.94;1789981;77;28174;-60
2021/11/06 03:03:14;;;;;;;7.65;5.28;;;;;;;8.77;94.67;144413.70;1819366;77;28044;-61
2021/11/06 03:05:49;;;;;;;9.15;5.30;;;;;;;8.87;94.41;144438.75;1828161;77;22128;-63
2021/11/06 03:08:24;;;;;;;8.53;5.10;;;;;;;8.89;94.27;144443.78;1834818;77;22159;-61
2021/11/06 03:11:05;;;;;;;9.43;5.28;;;;;;;8.94;94.46;144453.81;1831239;77;22196;-64
2021/11/06 03:13:42;;;;;;;8.45;5.35;;;;;;;8.89;94.06;144442.53;1807206;77;22649;-64
2021/11/06 03:16:16;;;;;;;8.48;5.37;;;;;;;8.88;93.98;144441.28;1818745;77;28428;-62
2021/11/06 03:18:50;;;;;;;8.40;4.90;;;;;;;8.91;93.66;144448.80;1821663;77;22638;-63
2021/11/06 03:21:27;;;;;;;8.03;5.50;;;;;;;8.92;93.97;144450.03;1853439;77;22162;-61
2021/11/06 03:24:03;;;;;;;9.45;5.92;;;;;;;8.88;93.91;144441.28;1792648;77;28115;-63
2021/11/06 03:26:44;;;;;;;8.40;5.65;;;;;;;8.95;93.77;144456.30;1824503;77;22207;-62
2021/11/06 03:29:39;;;;;;;11.65;6.45;;;;;;;8.95;93.58;144457.55;1834541;77;22137;-63
2021/11/06 03:32:39;;;;;;;10.32;6.42;;;;;;;8.88;93.45;144441.28;1834191;77;22598;-62
2021/11/06 03:35:33;;;;;;;9.73;6.08;;;;;;;8.78;93.52;144416.25;1834944;77;22144;-61
2021/11/06 03:38:27;;;;;;;9.15;5.30;;;;;;;8.75;93.85;144408.73;1834854;77;22165;-61
2021/11/06 03:41:02;;;;;;;10.68;6.33;;;;;;;8.72;93.44;144401.19;1834937;77;22545;-62
2021/11/06 03:43:38;;;;;;;10.63;5.97;;;;;;;8.73;93.57;144402.42;1834790;77;20100;-62
2021/11/06 03:46:12;;;;;;;9.30;6.05;;;;;;;8.73;93.71;144403.72;1853498;77;22179;-63
2021/11/06 03:49:13;;;;;;;9.38;6.20;;;;;;;8.70;93.52;144396.17;1834098;77;22277;-61
2021/11/06 03:51:48;;;;;;;11.12;5.03;;;;;;;8.63;92.96;144378.67;1834896;77;22129;-61
2021/11/06 03:54:23;;;;;;;8.38;5.30;;;;;;;8.57;92.69;144363.63;1834935;77;22129;-64
2021/11/06 03:57:22;;;;;;;9.98;5.50;;;;;;;8.54;92.53;144356.13;1853597;77;22163;-65
2021/11/06 04:00:09;;;;;;;8.45;5.47;;;;;;;8.54;92.73;144357.36;1834107;77;22134;-61
2021/11/06 04:02:45;;;;;;;9.48;5.65;;;;;;;8.54;92.39;144357.36;1834956;77;22235;-59
2021/11/06 04:05:40;;;;;;;9.05;5.00;;;;;;;8.57;92.86;144363.63;1837792;77;38726;-60
2021/11/06 04:08:22;;;;;;;8.13;4.95;;;;;;;8.65;93.03;144383.64;1884626;76;22199;-59
2021/11/06 04:10:57;;;;;;;9.58;5.72;;;;;;;8.70;92.94;144396.17;1835027;77;22196;-61
2021/11/06 04:13:32;;;;;;;9.50;5.90;;;;;;;8.72;92.86;144401.19;1853678;77;22158;-60
2021/11/06 04:16:07;;;;;;;11.75;5.45;;;;;;;8.77;93.10;144412.47;1834942;77;22136;-62
2021/11/06 04:19:01;;;;;;;7.87;5.50;;;;;;;8.77;92.79;144412.47;1834879;77;22157;-62
2021/11/06 04:21:38;;;;;;;10.88;5.90;;;;;;;8.76;92.51;144411.22;1834966;77;22164;-61
2021/11/06 04:24:13;;;;;;;8.58;6.03;;;;;;;8.78;92.52;144416.25;1834916;77;22124;-64
2021/11/06 04:27:09;;;;;;;10.13;6.12;;;;;;;8.79;92.20;144418.72;1812823;77;27962;-63
2021/11/06 04:29:50;;;;;;;9.53;5.33;;;;;;;8.84;91.99;144430.00;1834126;77;22184;-63
2021/11/06 04:32:25;;;;;;;7.62;5.03;;;;;;;8.84;91.89;144430.00;1835064;77;22128;-61
2021/11/06 04:35:20;;;;;;;12.53;5.53;;;;;;;8.79;91.85;144417.48;1835009;77;22570;-62
2021/11/06 04:37:54;;;;;;;8.60;5.10;;;;;;;8.80;91.87;144419.97;1835032;77;22128;-58
2021/11/06 04:40:48;;;;;;;9.40;5.70;;;;;;;8.81;91.98;144423.75;1834965;77;23761;-57
2021/11/06 04:43:24;;;;;;;11.80;6.67;;;;;;;8.82;91.91;144425.00;1834787;77;22151;-57
2021/11/06 04:46:00;;;;;;;10.10;6.80;;;;;;;8.82;91.88;144426.23;1837723;77;28022;-61
2021/11/06 04:48:36;;;;;;;10.50;6.55;;;;;;;8.85;91.65;144433.78;1848158;77;22156;-59
2021/11/06 04:51:10;;;;;;;8.05;5.75;;;;;;;8.88;91.33;144440.05;1853462;77;22132;-59
2021/11/06 04:54:10;;;;;;;19.25;6.42;;;;;;;8.87;91.28;144437.52;1834102;77;22181;-60
2021/11/06 04:56:47;;;;;;;10.50;6.15;;;;;;;8.84;91.02;144431.25;1834949;77;22125;-59
2021/11/06 04:59:23;;;;;;;9.10;5.70;;;;;;;8.84;91.15;144431.25;1834692;77;22630;-63
2021/11/06 05:02:17;;;;;;;10.00;6.33;;;;;;;8.81;90.73;144423.75;1834843;77;22133;-59
2021/11/06 05:04:52;;;;;;;11.25;7.33;;;;;;;8.81;90.79;144423.75;1835045;77;22240;-63
2021/11/06 05:07:28;;;;;;;13.15;6.85;;;;;;;8.81;90.57;144423.75;1837919;77;27999;-62
2021/11/06 05:10:05;;;;;;;10.10;6.47;;;;;;;8.84;90.00;144431.25;1834942;77;22132;-61
2021/11/06 05:12:58;;;;;;;8.55;5.75;;;;;;;8.80;90.01;144421.25;1853479;77;22148;-60
2021/11/06 05:15:35;;;;;;;9.65;6.03;;;;;;;8.80;89.93;144419.97;1819158;77;27975;-62
2021/11/06 05:18:18;;;;;;;8.43;5.12;;;;;;;8.84;89.74;144431.25;1834065;77;22263;-64
2021/11/06 05:20:53;;;;;;;8.23;5.12;;;;;;;8.84;89.42;144431.25;1835023;77;22605;-63
2021/11/06 05:23:28;;;;;;;10.13;5.30;;;;;;;8.82;89.27;144426.23;1819324;77;28401;-62
2021/11/06 05:26:03;;;;;;;9.20;5.15;;;;;;;8.87;89.16;144438.75;1853477;77;22135;-61
2021/11/06 05:28:58;;;;;;;9.58;6.42;;;;;;;8.86;89.06;144436.28;1834966;77;22210;-60
2021/11/06 05:31:57;;;;;;;9.63;5.10;;;;;;;8.82;89.17;144425.00;1834172;77;22615;-62
2021/11/06 05:34:32;;;;;;;9.80;5.12;;;;;;;8.80;88.89;144421.25;1853634;77;22127;-61
2021/11/06 05:37:07;;;;;;;7.95;5.12;;;;;;;8.73;89.07;144402.42;1834872;77;22155;-65
2021/11/06 05:39:42;;;;;;;12.45;5.47;;;;;;;8.72;89.07;144401.19;1853271;77;22167;-62
2021/11/06 05:42:17;;;;;;;9.73;5.00;;;;;;;8.73;89.14;144403.72;1834882;77;22136;-61
2021/11/06 05:44:52;;;;;;;9.85;5.30;;;;;;;8.73;88.92;144403.72;1853546;77;22148;-62
2021/11/06 05:47:27;;;;;;;8.63;5.28;;;;;;;8.76;89.00;144409.98;1834883;77;22188;-62
2021/11/06 05:50:05;;;;;;;9.98;5.35;;;;;;;8.75;88.74;144408.73;1853517;77;22257;-62
2021/11/06 05:53:00;;;;;;;8.80;5.80;;;;;;;8.77;88.42;144413.70;1834724;77;22257;-62
2021/11/06 05:55:35;;;;;;;10.10;5.60;;;;;;;8.79;88.21;144418.72;1835036;77;22164;-61
2021/11/06 05:58:10;;;;;;;8.75;5.15;;;;;;;8.81;88.15;144423.75;1834908;77;22582;-61
2021/11/06 06:00:45;;;;;;;9.78;6.05;;;;;;;8.83;87.86;144428.77;1834825;77;22212;-62
2021/11/06 06:03:40;;;;;;;9.10;6.25;;;;;;;8.86;87.54;144436.28;1834913;77;22562;-61
2021/11/06 06:06:15;;;;;;;11.28;5.95;;;;;;;8.91;87.17;144447.55;1834831;77;22136;-60
2021/11/06 06:08:56;;;;;;;11.75;5.80;;;;;;;8.97;86.94;144461.31;1834009;77;22155;-61
2021/11/06 06:11:33;;;;;;;11.33;6.42;;;;;;;8.98;86.36;144463.81;1853470;77;22569;-61
2021/11/06 06:14:26;;;;;;;10.55;6.15;;;;;;;9.02;86.07;144473.84;1834980;77;22133;-61
2021/11/06 06:17:08;;;;;;;9.00;5.62;;;;;;;9.76;86.47;144656.78;1834098;77;22164;-61
2021/11/06 06:19:42;;;;;;;7.67;5.72;;;;;;;11.66;82.35;145122.22;1834896;77;22156;-62
2021/11/06 06:22:38;;;;;;;12.55;5.75;;;;;;;14.03;76.83;145704.06;1853493;77;22167;-62
2021/11/06 06:25:33;;;;;;;11.70;5.92;;;;;;;16.35;69.76;146273.12;1834708;77;22159;-61
2021/11/06 06:28:09;;;;;;;9.78;5.30;;;;;;;17.92;62.28;146661.48;1819304;77;27988;-62
2021/11/06 06:30:44;;;;;;;8.70;5.33;;;;;;;19.17;56.80;146968.19;1834967;77;22136;-62
2021/11/06 06:33:24;;;;;;;7.72;4.58;;;;;;;20.33;50.80;147256.19;1834193;77;22201;-62
2021/11/06 06:36:00;;;;;;;11.00;4.85;;;;;;;21.38;49.44;147514.09;1834956;77;22125;-62
2021/11/06 06:39:00;;;;;;;8.15;4.35;;;;;;;22.75;44.70;147853.22;1853661;77;22220;-62
2021/11/06 06:41:35;;;;;;;8.68;4.50;;;;;;;23.54;42.11;148049.50;1835004;77;22152;-62
2021/11/06 06:44:10;;;;;;;8.75;4.35;;;;;;;24.13;39.57;148193.94;1835029;77;22160;-62
2021/11/06 06:46:55;;;;;;;8.08;4.72;;;;;;;24.13;39.05;148195.19;1834028;77;22203;-63
2021/11/06 06:49:49;;;;;;;8.60;4.78;;;;;;;24.58;37.50;148306.75;1853450;77;22136;-63
2021/11/06 06:52:44;;;;;;;7.72;5.22;;;;;;;24.65;36.25;148323.19;1834895;77;22132;-63
2021/11/06 06:55:37;;;;;;;7.08;4.80;;;;;;;24.75;35.86;148348.53;1853403;77;22200;-63
2021/11/06 06:58:33;;;;;;;6.83;4.67;;;;;;;25.02;35.07;148415.72;1834609;77;22535;-61
2021/11/06 07:01:14;;;;;;;7.03;4.90;;;;;;;25.24;34.82;148470.30;1834021;77;22586;-62
2021/11/06 07:03:51;;;;;;;7.65;4.75;;;;;;;25.19;33.45;148457.63;1834331;77;22172;-63
2021/11/06 07:06:27;;;;;;;8.65;5.00;;;;;;;24.93;33.74;148391.64;1817841;77;22203;-63
2021/11/06 07:09:03;;;;;;;9.43;4.75;;;;;;;24.66;34.28;148327.00;1818479;77;22080;-63
2021/11/06 07:11:38;;;;;;;9.73;5.53;;;;;;;24.78;34.27;148356.19;1837635;77;28014;-62
2021/11/06 07:14:15;;;;;;;6.70;4.47;;;;;;;25.41;32.91;148510.84;1853558;77;22666;-62
2021/11/06 07:16:52;;;;;;;6.87;4.55;;;;;;;25.69;32.45;148580.58;1834872;77;22310;-61
2021/11/06 07:19:26;;;;;;;8.08;5.08;;;;;;;25.89;31.38;148630.09;1837671;77;27975;-61
2021/11/06 07:22:00;;;;;;;8.50;4.97;;;;;;;25.70;31.54;148584.41;1839059;77;22251;-62
2021/11/06 07:24:55;;;;;;;7.40;5.10;;;;;;;25.29;32.34;148481.67;1837887;77;28389;-60
2021/11/06 07:27:49;;;;;;;6.87;4.47;;;;;;;25.62;31.66;148564.12;1853361;77;22266;-61
2021/11/06 07:30:24;;;;;;;9.20;5.65;;;;;;;25.40;31.74;148509.59;1837786;77;27995;-61
2021/11/06 07:33:05;;;;;;;7.10;4.22;;;;;;;25.50;31.73;148533.69;1818946;77;22286;-61
2021/11/06 07:36:00;;;;;;;7.17;4.42;;;;;;;24.83;31.52;148368.84;1817006;77;22114;-61
2021/11/06 07:38:35;;;;;;;7.78;4.95;;;;;;;23.64;33.64;148072.30;1827759;77;22274;-61
2021/11/06 07:41:12;;;;;;;11.57;5.20;;;;;;;23.71;33.73;148090.00;1819429;77;27997;-60
2021/11/06 07:43:48;;;;;;;6.70;4.58;;;;;;;24.07;33.51;148180.00;1834739;77;22112;-60
2021/11/06 07:46:43;;;;;;;6.80;4.70;;;;;;;23.43;33.14;148021.61;1834857;77;22259;-70
2021/11/06 07:49:19;;;;;;;7.45;5.00;;;;;;;22.68;34.61;147836.75;1853468;77;22072;-63
2021/11/06 07:52:13;;;;;;;10.15;5.53;;;;;;;22.54;34.59;147802.61;1834896;77;22081;-63
2021/11/06 07:54:49;;;;;;;7.60;5.15;;;;;;;22.00;35.62;147667.16;1834822;77;22495;-63
2021/11/06 07:57:32;;;;;;;6.37;4.60;;;;;;;21.94;35.77;147653.25;1853319;77;22156;-62
2021/11/06 08:00:46;;;;;;;7.20;5.00;;;;;;;21.11;36.65;147447.06;1838430;77;22370;-62
2021/11/06 08:03:35;;;;;;;7.92;5.35;;;;;;;20.07;38.10;147190.47;1833197;77;22752;-61
2021/11/06 08:06:18;;;;;;;7.83;5.47;;;;;;;19.82;39.22;147128.56;1852582;77;22224;-63
2021/11/06 08:09:13;;;;;;;12.25;5.70;;;;;;;19.37;40.32;147018.69;1818732;77;22591;-62
2021/11/06 08:11:51;;;;;;;7.05;5.00;;;;;;;19.56;40.59;147064.13;1831829;77;22143;-62
2021/11/06 08:14:45;;;;;;;7.17;5.25;;;;;;;19.72;40.15;147105.87;1834859;77;22140;-62
2021/11/06 08:17:21;;;;;;;8.05;5.05;;;;;;;19.73;39.93;147108.37;1822935;77;22170;-62
2021/11/06 08:20:04;;;;;;;7.35;5.28;;;;;;;19.44;39.85;147035.11;1825943;77;22620;-62
2021/11/06 08:22:45;;;;;;;9.43;6.00;;;;;;;19.00;40.96;146926.50;1834129;77;22160;-61
2021/11/06 08:25:39;;;;;;;8.70;5.60;;;;;;;18.69;41.29;146850.73;1834868;77;22140;-62
2021/11/06 08:28:33;;;;;;;9.00;5.80;;;;;;;18.04;42.15;146689.22;1835031;77;22168;-62
2021/11/06 08:31:28;;;;;;;9.73;6.10;;;;;;;17.10;44.19;146459.69;1828561;77;22634;-61
2021/11/06 08:34:03;;;;;;;9.33;6.17;;;;;;;16.82;45.40;146389.13;1853299;77;22186;-61
2021/11/06 08:36:45;;;;;;;8.95;6.08;;;;;;;16.61;45.97;146338.66;1852397;77;22233;-61
2021/11/06 08:39:22;;;;;;;10.53;6.42;;;;;;;16.52;46.74;146314.72;1819031;77;28426;-62
2021/11/06 08:41:58;;;;;;;8.25;6.00;;;;;;;16.62;46.25;146339.91;1834924;77;22188;-62
2021/11/06 08:44:41;;;;;;;7.45;5.50;;;;;;;16.12;46.63;146217.69;1853330;77;22642;-62
2021/11/06 08:47:22;;;;;;;9.03;6.08;;;;;;;15.48;47.48;146060.22;1834041;77;22177;-62
2021/11/06 08:49:59;;;;;;;9.70;5.03;;;;;;;14.78;48.57;145886.52;1834674;77;22160;-62
2021/11/06 08:52:37;;;;;;;7.67;5.58;;;;;;;14.11;50.05;145724.17;1853425;77;22147;-62
2021/11/06 08:55:20;;;;;;;8.48;5.42;;;;;;;13.46;51.46;145563.27;1834220;77;22231;-61
2021/11/06 08:58:20;;;;;;;8.03;5.15;;;;;;;12.73;53.69;145384.73;1843050;78;22183;-61
2021/11/06 09:00:55;;;;;;;7.53;4.70;;;;;;;12.10;55.23;145230.22;1834974;77;22133;-61
2021/11/06 09:03:30;;;;;;;10.00;5.90;;;;;;;11.68;56.42;145126.00;1853491;77;22139;-62
2021/11/06 09:06:05;;;;;;;8.95;5.45;;;;;;;11.18;57.91;145002.98;1853488;77;22128;-61
2021/11/06 09:08:49;;;;;;;11.48;6.00;;;;;;;10.78;59.53;144905.11;1834085;77;22628;-61
2021/11/06 09:11:46;;;;;;;11.75;6.42;;;;;;;10.42;61.43;144817.31;1819303;77;28038;-61
2021/11/06 09:14:45;;;;;;;7.87;5.20;;;;;;;10.28;62.87;144782.19;1853432;77;22179;-61
2021/11/06 09:17:20;;;;;;;10.68;6.17;;;;;;;10.25;62.90;144774.63;1834845;77;22281;-62
2021/11/06 09:20:03;;;;;;;11.22;6.17;;;;;;;10.19;63.63;144762.08;1834107;77;22587;-62
2021/11/06 09:22:40;;;;;;;9.08;6.22;;;;;;;10.08;63.92;144733.28;1815766;79;22180;-62
2021/11/06 09:25:15;;;;;;;8.08;5.87;;;;;;;10.04;64.55;144723.22;1834879;77;22149;-61
2021/11/06 09:27:50;;;;;;;10.48;6.60;;;;;;;10.00;64.76;144714.47;1853461;77;22127;-61
2021/11/06 09:30:26;;;;;;;9.73;5.90;;;;;;;10.14;65.04;144749.55;1837803;77;28003;-61
2021/11/06 09:33:00;;;;;;;8.75;5.22;;;;;;;10.40;64.67;144812.28;1853482;77;22135;-61
2021/11/06 09:35:36;;;;;;;9.53;5.30;;;;;;;10.60;64.32;144862.45;1834934;77;22116;-61
2021/11/06 09:38:18;;;;;;;9.55;5.12;;;;;;;10.81;63.97;144912.63;1853425;77;22204;-62
2021/11/06 09:41:12;;;;;;;9.30;5.90;;;;;;;11.18;62.51;145002.98;1834994;77;22129;-62
2021/11/06 09:44:08;;;;;;;7.45;4.85;;;;;;;11.44;62.37;145068.22;1834894;77;22124;-61
2021/11/06 09:46:43;;;;;;;7.80;4.85;;;;;;;11.65;61.32;145119.72;1853501;77;22228;-62
2021/11/06 09:49:18;;;;;;;8.75;6.35;;;;;;;11.47;59.64;145075.78;1853478;77;22127;-63
2021/11/06 09:52:00;;;;;;;9.73;5.97;;;;;;;10.99;60.62;144957.83;1834021;77;22152;-61
2021/11/06 09:54:55;;;;;;;9.63;5.80;;;;;;;10.67;61.76;144877.53;1853437;77;22191;-61
2021/11/06 09:57:30;;;;;;;10.05;5.22;;;;;;;10.49;62.28;144834.87;1843341;77;22609;-62
2021/11/06 10:00:07;;;;;;;10.93;5.95;;;;;;;10.22;62.73;144769.59;1834962;77;22156;-61
2021/11/06 10:03:01;;;;;;;10.58;6.00;;;;;;;10.02;63.69;144719.44;1834964;77;22128;-61
2021/11/06 10:05:56;;;;;;;8.65;5.92;;;;;;;9.90;64.17;144689.41;1853757;77;22147;-62
2021/11/06 10:08:38;;;;;;;9.10;6.00;;;;;;;9.82;64.86;144669.31;1819160;77;28493;-61
2021/11/06 10:11:33;;;;;;;12.80;7.70;;;;;;;9.82;65.17;144670.59;1834958;77;22130;-61
2021/11/06 10:14:27;;;;;;;13.95;7.37;;;;;;;9.82;65.34;144670.59;1834873;77;22591;-62
2021/11/06 10:17:02;;;;;;;11.10;6.20;;;;;;;9.89;65.46;144686.86;1834914;77;22172;-62
2021/11/06 10:19:40;;;;;;;9.03;6.03;;;;;;;10.02;65.38;144718.20;1819444;77;28031;-61
2021/11/06 10:22:25;;;;;;;9.75;6.00;;;;;;;10.19;64.75;144762.08;1834991;77;22160;-61
2021/11/06 10:25:21;;;;;;;8.68;5.40;;;;;;;10.35;64.69;144801.00;1853445;77;22139;-62
2021/11/06 10:28:15;;;;;;;7.30;5.00;;;;;;;10.60;64.04;144862.45;1853484;77;22139;-62
2021/11/06 10:31:15;;;;;;;8.98;5.17;;;;;;;10.81;63.24;144912.63;1853377;77;22617;-62
2021/11/06 10:33:50;;;;;;;8.30;5.25;;;;;;;10.92;62.88;144940.25;1853465;77;22152;-62
2021/11/06 10:36:30;;;;;;;9.85;5.70;;;;;;;11.11;62.29;144985.41;1843081;78;22677;-61
2021/11/06 10:39:11;;;;;;;10.23;6.55;;;;;;;11.28;61.45;145028.08;1834960;77;22583;-61
2021/11/06 10:41:48;;;;;;;8.58;5.58;;;;;;;11.36;59.93;145048.16;1834793;77;22274;-61
2021/11/06 10:44:27;;;;;;;8.85;5.67;;;;;;;11.35;59.82;145045.66;1853515;77;22124;-62
2021/11/06 10:47:21;;;;;;;8.83;5.53;;;;;;;11.22;59.82;145014.28;1834827;77;22249;-62
2021/11/06 10:50:15;;;;;;;7.40;4.85;;;;;;;11.18;60.52;145002.98;1853442;77;22156;-62
2021/11/06 10:52:50;;;;;;;7.50;4.87;;;;;;;11.08;59.88;144980.37;1819555;77;27989;-61
2021/11/06 10:55:45;;;;;;;7.65;4.60;;;;;;;11.10;58.70;144982.92;1853488;77;22177;-61
2021/11/06 10:58:42;;;;;;;6.67;4.45;;;;;;;11.08;58.59;144979.13;1834958;77;22172;-62
2021/11/06 11:01:25;;;;;;;7.10;4.35;;;;;;;11.13;58.56;144990.44;1834848;77;22128;-61
2021/11/06 11:04:13;;;;;;;8.08;4.53;;;;;;;11.19;58.37;145005.47;1834079;77;22168;-61
2021/11/06 11:06:53;;;;;;;9.48;5.12;;;;;;;11.22;57.89;145014.28;1853483;77;22123;-62
2021/11/06 11:09:47;;;;;;;8.18;5.08;;;;;;;11.21;58.10;145010.50;1834892;77;22157;-62
2021/11/06 11:12:41;;;;;;;8.03;5.05;;;;;;;11.23;58.48;145016.78;1834891;77;22551;-61
2021/11/06 11:15:24;;;;;;;7.78;4.62;;;;;;;11.36;58.37;145048.16;1834898;77;22553;-63
2021/11/06 11:17:59;;;;;;;8.63;5.53;;;;;;;11.46;58.39;145072.00;1853494;77;22123;-61
2021/11/06 11:20:53;;;;;;;9.88;5.83;;;;;;;11.56;57.82;145095.86;1834860;77;22132;-61
2021/11/06 11:23:29;;;;;;;8.85;5.42;;;;;;;11.60;57.90;145105.88;1848350;77;22174;-61
2021/11/06 11:26:04;;;;;;;9.20;5.10;;;;;;;11.67;57.70;145123.45;1853482;77;22128;-61
2021/11/06 11:29:02;;;;;;;8.73;5.53;;;;;;;11.61;57.18;145108.41;1853486;77;22549;-61
2021/11/06 11:32:03;;;;;;;7.90;5.45;;;;;;;11.56;57.12;145095.86;1834087;77;22588;-62
2021/11/06 11:34:56;;;;;;;10.05;5.05;;;;;;;11.60;57.03;145107.17;1834877;77;22543;-62
2021/11/06 11:37:32;;;;;;;8.05;5.75;;;;;;;11.57;56.71;145098.34;1843333;78;22226;-61
2021/11/06 11:40:09;;;;;;;10.13;5.65;;;;;;;11.39;56.74;145054.42;1819251;77;27978;-62
2021/11/06 11:43:12;;;;;;;8.93;5.42;;;;;;;11.29;57.37;145031.81;1834849;77;22610;-61
2021/11/06 11:45:58;;;;;;;8.10;4.90;;;;;;;11.41;56.97;145060.70;1834908;77;22602;-62
2021/11/06 11:48:39;;;;;;;10.05;5.10;;;;;;;11.52;56.44;145087.05;1834057;77;22694;-61
2021/11/06 11:51:35;;;;;;;8.43;5.60;;;;;;;11.45;56.34;145070.75;1834936;77;22578;-61
2021/11/06 11:54:34;;;;;;;7.42;4.87;;;;;;;11.19;56.96;145006.72;1853497;77;22135;-61
2021/11/06 11:57:39;;;;;;;7.37;4.50;;;;;;;11.21;57.25;145010.50;1853490;77;22590;-62
2021/11/06 12:00:58;;;;;;;10.80;5.53;;;;;;;11.36;56.87;145046.91;1832920;77;22286;-63
2021/11/06 12:03:42;;;;;;;9.23;5.37;;;;;;;11.50;56.17;145083.31;1853493;77;22183;-62
2021/11/06 12:06:37;;;;;;;7.22;4.70;;;;;;;11.68;55.75;145127.25;1853623;77;22124;-61
2021/11/06 12:09:37;;;;;;;7.50;4.72;;;;;;;11.89;54.97;145178.75;1834109;77;22594;-61
2021/11/06 12:12:38;;;;;;;7.80;4.50;;;;;;;12.04;54.85;145215.17;1834897;77;22161;-61
2021/11/06 12:15:20;;;;;;;8.10;4.72;;;;;;;12.26;53.55;145267.89;1835003;77;22147;-62
2021/11/06 12:18:57;;;;;;;8.20;4.37;;;;;;;12.15;53.33;145241.53;1853453;77;22601;-61
2021/11/06 12:21:36;;;;;;;6.75;4.50;;;;;;;12.04;53.27;145213.94;1834918;77;22129;-61
2021/11/06 12:24:17;;;;;;;7.28;4.22;;;;;;;11.85;53.29;145168.64;1834787;77;22169;-61
2021/11/06 12:27:15;;;;;;;7.10;4.17;;;;;;;11.71;54.14;145134.77;1834899;77;22168;-63
2021/11/06 12:29:54;;;;;;;7.60;4.22;;;;;;;11.94;54.04;145191.31;1834894;77;22583;-61
2021/11/06 12:32:34;;;;;;;7.53;4.33;;;;;;;12.18;53.76;145247.81;1834891;77;22128;-61
2021/11/06 12:35:23;;;;;;;7.85;4.37;;;;;;;12.24;53.50;145264.16;1834099;77;22201;-61
2021/11/06 12:38:04;;;;;;;7.58;4.35;;;;;;;12.31;52.82;145281.75;1834978;77;22137;-63
2021/11/06 12:40:55;;;;;;;6.92;4.33;;;;;;;12.27;53.03;145270.44;1853260;77;22619;-61
2021/11/06 12:43:30;;;;;;;9.03;3.85;;;;;;;12.16;52.69;145244.03;1834999;77;22140;-61